Clarkson, Kentucky
Current Conditions -  °F | °C
As of 7:08 AM on Monday 22 Dec 2014 (Local Time) from KFTK Reporting Station
Overcast Overcast  
Wind Chill: 32°   Ceiling: 2800
Heat Index: 37°   Visibility: 10mi
Dew Point: 32°   Wind: 7mph
Humidity: 81%   Direction: 80°E
Pressure: 29.95"   Gusts: NA
Location:  37.5°N, 86.22°W
Report Text: KFTK 221308Z AUTO 08006KT 10SM SCT019 OVC028 03/00 A2995 RMK AO2 CIG 019V028
Loading
Personal Weather Stations






























Interactive Weather Map New forecast layout! Learn more

10-Day Weather Forecast

Advertisements
Track Severe Weather on mobile